CheckWX is a tool to help pilots better visualize weather data.  It is not intended as a substitute for an official pre-flight weather briefing.

17:11:24 UTC

EGDM METAR
MoD Boscombe Down Airport
Amesbury, United Kingdom
Current

1 hour ago

EGDM 251550Z AUTO 14009KT 5000 BR OVC004/// 06/06 Q1015
Observed
Jan-25 @ 15:50 UTC
Wind
  • 140° at 9 KTS
Visibility
5,000 meters
Flight Rules
LIFR
Conditions
Mist
Cloud Levels
  • Overcast at 400' AGL
Temperature
C / 43°F
Dewpoint
C / 43°F
Humidity
100%
Altimeter
29.97" Hg
Pressure
1014.92 hPa
Previous

2 hours ago

EGDM 251450Z AUTO 15007KT 7000 BR OVC003/// 07/06 Q1015
Observed
Jan-25 @ 14:50 UTC
Wind
  • 150° at 7 KTS
Visibility
7,000 meters
Flight Rules
LIFR
Conditions
Mist
Cloud Levels
  • Overcast at 300' AGL
Temperature
C / 45°F
Dewpoint
C / 43°F
Humidity
93%
Altimeter
29.97" Hg
Pressure
1014.92 hPa
Previous

3 hours ago

EGDM 251350Z AUTO 13008KT 4600 BR OVC003/// 06/06 Q1016
Observed
Jan-25 @ 13:50 UTC
Wind
  • 130° at 8 KTS
Visibility
4,600 meters
Flight Rules
LIFR
Conditions
Mist
Cloud Levels
  • Overcast at 300' AGL
Temperature
C / 43°F
Dewpoint
C / 43°F
Humidity
100%
Altimeter
30" Hg
Pressure
1015.92 hPa